createdAt,value
2018-10-16T00:00:58.713Z,9.70
2018-10-16T00:03:27.201Z,10.27
2018-10-16T00:05:55.755Z,10.23
2018-10-16T00:08:24.252Z,10.87
2018-10-16T00:10:52.720Z,11.23
2018-10-16T00:13:21.171Z,10.70
2018-10-16T00:15:49.698Z,9.70
2018-10-16T00:18:18.142Z,9.80
2018-10-16T00:20:46.600Z,8.90
2018-10-16T00:23:15.064Z,8.30
2018-10-16T00:25:43.486Z,8.87
2018-10-16T00:28:11.968Z,9.53
2018-10-16T00:30:40.387Z,9.80
2018-10-16T00:33:08.926Z,9.57
2018-10-16T00:35:37.385Z,9.83
2018-10-16T00:38:05.893Z,9.90
2018-10-16T00:40:35.884Z,10.53
2018-10-16T00:43:05.463Z,10.43
2018-10-16T00:45:33.908Z,9.93
2018-10-16T00:48:02.367Z,10.13
2018-10-16T00:50:30.895Z,9.53
2018-10-16T00:52:59.320Z,9.87
2018-10-16T00:55:27.814Z,9.83
2018-10-16T00:57:56.271Z,10.17
2018-10-16T01:00:24.726Z,9.80
2018-10-16T01:02:53.114Z,9.80
2018-10-16T01:05:21.596Z,10.53
2018-10-16T01:07:50.044Z,10.00
2018-10-16T01:10:18.461Z,9.67
2018-10-16T01:12:46.946Z,10.57
2018-10-16T01:15:15.436Z,10.73
2018-10-16T01:17:43.944Z,10.47
2018-10-16T01:20:14.189Z,11.00
2018-10-16T01:22:43.101Z,9.93
2018-10-16T01:25:12.546Z,9.67
2018-10-16T01:27:41.208Z,9.70
2018-10-16T01:30:09.818Z,10.07
2018-10-16T01:32:38.671Z,9.20
2018-10-16T01:35:08.396Z,9.50
2018-10-16T01:37:37.004Z,10.37
2018-10-16T01:40:06.930Z,9.00
2018-10-16T01:42:35.372Z,10.27
2018-10-16T01:45:03.782Z,10.67
2018-10-16T01:47:32.251Z,9.97
2018-10-16T01:50:00.711Z,10.27
2018-10-16T01:52:29.117Z,9.80
2018-10-16T01:54:57.724Z,9.87
2018-10-16T01:57:26.215Z,10.67
2018-10-16T01:59:55.579Z,9.10
2018-10-16T02:02:24.365Z,9.37
2018-10-16T02:04:52.788Z,8.97
2018-10-16T02:07:21.286Z,9.53
2018-10-16T02:09:50.747Z,9.47
2018-10-16T02:12:19.203Z,9.60
2018-10-16T02:14:48.868Z,9.03
2018-10-16T02:17:17.881Z,9.50
2018-10-16T02:19:46.368Z,8.57
2018-10-16T02:22:15.352Z,9.67
2018-10-16T02:24:43.720Z,9.90
2018-10-16T02:27:12.275Z,10.50
2018-10-16T02:29:40.664Z,9.60
2018-10-16T02:32:09.523Z,9.60
2018-10-16T02:34:37.927Z,9.93
2018-10-16T02:37:07.154Z,9.57
2018-10-16T02:39:35.617Z,9.07
2018-10-16T02:42:04.127Z,10.27
2018-10-16T02:44:32.601Z,9.33
2018-10-16T02:47:01.046Z,10.20
2018-10-16T02:49:30.185Z,10.00
2018-10-16T02:51:58.620Z,9.17
2018-10-16T02:54:27.072Z,9.47
2018-10-16T02:56:55.523Z,9.50
2018-10-16T02:59:24.174Z,10.67
2018-10-16T03:01:52.598Z,10.57
2018-10-16T03:04:21.051Z,9.33
2018-10-16T03:06:49.547Z,9.40
2018-10-16T03:09:17.995Z,9.53
2018-10-16T03:11:46.402Z,9.70
2018-10-16T03:14:14.801Z,8.43
2018-10-16T03:16:43.500Z,9.03
2018-10-16T03:19:11.904Z,9.30
2018-10-16T03:21:40.351Z,9.03
2018-10-16T03:24:09.412Z,9.87
2018-10-16T03:26:38.358Z,9.47
2018-10-16T03:29:07.007Z,9.23
2018-10-16T03:31:35.455Z,9.47
2018-10-16T03:34:03.916Z,9.57
2018-10-16T03:36:32.363Z,9.80
2018-10-16T03:39:00.825Z,9.90
2018-10-16T03:41:29.252Z,9.67
2018-10-16T03:44:00.962Z,8.97
2018-10-16T03:46:30.013Z,9.20
2018-10-16T03:48:59.229Z,9.43
2018-10-16T03:51:27.630Z,9.90
2018-10-16T03:53:56.974Z,8.77
2018-10-16T03:56:26.293Z,9.70
2018-10-16T03:58:54.960Z,9.10
2018-10-16T04:01:24.693Z,9.67
2018-10-16T04:03:53.158Z,10.10
2018-10-16T04:06:22.136Z,9.90
2018-10-16T04:08:51.266Z,9.73
2018-10-16T04:11:20.003Z,9.30
2018-10-16T04:13:49.102Z,9.70
2018-10-16T04:16:17.579Z,9.43
2018-10-16T04:18:46.055Z,9.20
2018-10-16T04:21:14.496Z,9.20
2018-10-16T04:23:43.562Z,8.90
2018-10-16T04:26:12.656Z,10.23
2018-10-16T04:28:41.169Z,10.63
2018-10-16T04:31:10.847Z,8.83
2018-10-16T04:33:39.267Z,9.00
2018-10-16T04:36:07.737Z,9.53
2018-10-16T04:38:36.204Z,9.03
2018-10-16T04:41:04.991Z,9.47
2018-10-16T04:43:33.427Z,9.67
2018-10-16T04:46:01.956Z,11.60
2018-10-16T04:48:30.558Z,11.67
2018-10-16T04:50:59.640Z,12.73
2018-10-16T04:53:28.108Z,10.43
2018-10-16T04:55:56.531Z,11.37
2018-10-16T04:58:25.580Z,9.40
2018-10-16T05:00:53.975Z,8.13
2018-10-16T05:03:22.417Z,8.87
2018-10-16T05:05:50.884Z,9.27
2018-10-16T05:08:19.460Z,10.53
2018-10-16T05:10:49.568Z,10.67
2018-10-16T05:13:18.099Z,11.70
2018-10-16T05:15:47.080Z,10.83
2018-10-16T05:18:16.046Z,11.67
2018-10-16T05:20:44.546Z,9.43
2018-10-16T05:23:13.432Z,9.60
2018-10-16T05:25:41.931Z,10.30
2018-10-16T05:28:10.397Z,11.00
2018-10-16T05:30:38.946Z,10.53
2018-10-16T05:33:07.385Z,10.77
2018-10-16T05:35:35.859Z,10.70
2018-10-16T05:38:04.404Z,10.20
2018-10-16T05:40:32.889Z,11.23
2018-10-16T05:43:01.374Z,11.10
2018-10-16T05:45:32.380Z,9.77
2018-10-16T05:48:00.861Z,10.63
2018-10-16T05:50:29.300Z,10.03
2018-10-16T05:52:57.703Z,10.23
2018-10-16T05:55:26.168Z,10.13
2018-10-16T05:57:54.580Z,10.60
2018-10-16T06:00:44.541Z,10.07
2018-10-16T06:03:12.985Z,11.67
2018-10-16T06:05:41.473Z,10.90
2018-10-16T06:08:10.315Z,11.60
2018-10-16T06:10:38.797Z,10.80
2018-10-16T06:13:07.421Z,10.50
2018-10-16T06:15:35.854Z,10.73
2018-10-16T06:18:04.321Z,9.83
2018-10-16T06:20:32.810Z,11.73
2018-10-16T06:23:01.383Z,16.17
2018-10-16T06:25:29.890Z,11.63
2018-10-16T06:27:58.372Z,12.27
2018-10-16T06:30:26.866Z,10.73
2018-10-16T06:32:55.293Z,10.63
2018-10-16T06:35:23.823Z,11.83
2018-10-16T06:37:52.979Z,11.50
2018-10-16T06:40:21.388Z,11.27
2018-10-16T06:42:52.180Z,10.97
2018-10-16T06:45:20.703Z,11.50
2018-10-16T06:47:49.273Z,10.27
2018-10-16T06:50:18.153Z,10.40
2018-10-16T06:52:46.604Z,12.87
2018-10-16T06:55:15.098Z,11.73
2018-10-16T06:57:44.431Z,11.60
2018-10-16T07:00:13.001Z,12.97
2018-10-16T07:02:41.423Z,13.33
2018-10-16T07:05:10.608Z,11.33
2018-10-16T07:07:39.056Z,11.10
2018-10-16T07:10:08.785Z,11.43
2018-10-16T07:12:43.480Z,11.60
2018-10-16T07:15:11.913Z,11.97
2018-10-16T07:17:40.927Z,12.73
2018-10-16T07:20:09.869Z,12.07
2018-10-16T07:22:38.320Z,13.03
2018-10-16T07:25:07.643Z,11.47
2018-10-16T07:27:36.765Z,12.77
2018-10-16T07:30:06.500Z,11.83
2018-10-16T07:32:35.105Z,11.67
2018-10-16T07:35:03.541Z,11.73
2018-10-16T07:37:32.167Z,11.97
2018-10-16T07:40:01.550Z,12.70
2018-10-16T07:42:30.541Z,12.53
2018-10-16T07:44:59.036Z,11.63
2018-10-16T07:47:27.510Z,12.33
2018-10-16T07:49:55.943Z,11.10
2018-10-16T07:52:24.473Z,11.47
2018-10-16T07:54:52.883Z,12.00
2018-10-16T07:57:22.334Z,10.80
2018-10-16T07:59:51.561Z,11.43
2018-10-16T08:02:19.971Z,12.13
2018-10-16T08:04:50.405Z,12.17
2018-10-16T08:07:18.868Z,11.30
2018-10-16T08:09:47.272Z,11.53
2018-10-16T08:12:15.752Z,11.10
2018-10-16T08:14:44.346Z,12.00
2018-10-16T08:17:14.876Z,10.73
2018-10-16T08:19:43.347Z,11.53
2018-10-16T08:22:13.169Z,10.60
2018-10-16T08:24:42.481Z,10.80
2018-10-16T08:27:12.295Z,11.67
2018-10-16T08:29:40.743Z,11.43
2018-10-16T08:32:09.433Z,10.73
2018-10-16T08:34:37.891Z,10.97
2018-10-16T08:37:10.284Z,11.07
2018-10-16T08:39:41.193Z,12.03
2018-10-16T08:42:22.793Z,12.00
2018-10-16T08:45:28.015Z,13.37
2018-10-16T08:48:08.796Z,11.03
2018-10-16T08:50:49.469Z,10.40
2018-10-16T08:53:17.947Z,13.87
2018-10-16T08:55:47.359Z,13.60
2018-10-16T08:58:15.831Z,13.63
2018-10-16T09:00:44.365Z,11.83
2018-10-16T09:03:12.865Z,10.53
2018-10-16T09:05:41.464Z,11.47
2018-10-16T09:08:09.965Z,10.83
2018-10-16T09:10:38.484Z,10.57
2018-10-16T09:13:07.035Z,11.67
2018-10-16T09:15:35.488Z,11.17
2018-10-16T09:18:04.041Z,10.77
2018-10-16T09:20:32.528Z,10.33
2018-10-16T09:23:01.052Z,10.57
2018-10-16T09:25:29.494Z,12.73
2018-10-16T09:27:57.999Z,12.40
2018-10-16T09:30:28.720Z,12.50
2018-10-16T09:32:57.216Z,10.97
2018-10-16T09:35:25.655Z,10.50
2018-10-16T09:37:54.133Z,11.00
2018-10-16T09:40:22.617Z,11.13
2018-10-16T09:42:51.091Z,10.43
2018-10-16T09:45:19.541Z,11.00
2018-10-16T09:47:48.088Z,10.40
2018-10-16T09:50:16.597Z,11.17
2018-10-16T09:52:45.112Z,10.50
2018-10-16T09:55:13.580Z,13.50
2018-10-16T09:57:42.844Z,11.07
2018-10-16T10:00:17.455Z,10.63
2018-10-16T10:02:45.951Z,10.57
2018-10-16T10:05:15.007Z,9.80
2018-10-16T10:07:43.652Z,9.47
2018-10-16T10:10:12.063Z,9.97
2018-10-16T10:12:40.793Z,9.50
2018-10-16T10:15:09.482Z,9.30
2018-10-16T10:17:37.979Z,9.70
2018-10-16T10:20:07.304Z,8.97
2018-10-16T10:22:35.832Z,9.30
2018-10-16T10:25:04.474Z,8.70
2018-10-16T10:27:33.551Z,8.53
2018-10-16T10:30:02.590Z,8.47
2018-10-16T10:32:31.548Z,8.63
2018-10-16T10:35:00.243Z,9.13
2018-10-16T10:37:28.956Z,9.00
2018-10-16T10:39:57.443Z,8.60
2018-10-16T10:42:25.886Z,8.60
2018-10-16T10:44:54.387Z,8.37
2018-10-16T10:47:22.840Z,8.20
2018-10-16T10:49:51.851Z,8.63
2018-10-16T10:52:20.255Z,8.03
2018-10-16T10:54:49.263Z,8.60
2018-10-16T10:57:17.866Z,8.20
2018-10-16T10:59:46.343Z,8.83
2018-10-16T11:02:14.804Z,10.03
2018-10-16T11:04:43.262Z,8.23
2018-10-16T11:07:11.737Z,9.40
2018-10-16T11:09:40.222Z,9.23
2018-10-16T11:12:08.736Z,9.57
2018-10-16T11:14:38.299Z,8.40
2018-10-16T11:17:06.923Z,8.33
2018-10-16T11:19:35.374Z,8.33
2018-10-16T11:22:03.824Z,7.57
2018-10-16T11:24:32.631Z,6.97
2018-10-16T11:27:01.208Z,7.43
2018-10-16T11:29:29.732Z,6.80
2018-10-16T11:31:58.393Z,6.87
2018-10-16T11:34:26.956Z,6.70
2018-10-16T11:36:55.408Z,5.97
2018-10-16T11:39:24.032Z,6.73
2018-10-16T11:41:53.090Z,6.47
2018-10-16T11:44:21.599Z,6.23
2018-10-16T11:46:50.371Z,6.20
2018-10-16T11:49:18.841Z,6.53
2018-10-16T11:51:47.353Z,5.60
2018-10-16T11:54:15.895Z,6.13
2018-10-16T11:56:44.412Z,6.17
2018-10-16T11:59:13.390Z,5.83
2018-10-16T12:01:41.941Z,6.13
2018-10-16T12:04:10.644Z,5.23
2018-10-16T12:06:39.152Z,6.33
2018-10-16T12:09:09.764Z,5.63
2018-10-16T12:11:39.100Z,6.03
2018-10-16T12:14:09.070Z,5.90
2018-10-16T12:18:48.042Z,5.57
2018-10-16T12:21:18.629Z,5.60
2018-10-16T12:23:47.392Z,5.50
2018-10-16T12:26:16.538Z,5.17
2018-10-16T12:28:45.115Z,5.63
2018-10-16T12:31:13.689Z,5.10
2018-10-16T12:33:42.199Z,5.17
2018-10-16T12:36:11.805Z,5.83
2018-10-16T12:38:40.387Z,5.63
2018-10-16T12:41:08.889Z,5.67
2018-10-16T12:43:37.570Z,5.40
2018-10-16T12:46:06.342Z,5.47
2018-10-16T12:48:34.799Z,5.37
2018-10-16T12:51:03.386Z,4.80
2018-10-16T12:53:32.199Z,5.17
2018-10-16T12:56:00.938Z,5.00
2018-10-16T12:58:29.488Z,4.50
2018-10-16T13:00:58.032Z,5.43
2018-10-16T13:03:26.525Z,5.10
2018-10-16T13:05:55.066Z,5.00
2018-10-16T13:08:23.580Z,4.70
2018-10-16T13:10:52.077Z,5.70
2018-10-16T13:13:21.287Z,5.30
2018-10-16T13:15:49.984Z,5.47
2018-10-16T13:18:18.445Z,5.30
2018-10-16T13:20:46.940Z,5.37
2018-10-16T13:23:15.701Z,5.73
2018-10-16T13:25:44.269Z,5.10
2018-10-16T13:28:12.902Z,5.23
2018-10-16T13:30:41.331Z,5.40
2018-10-16T13:33:10.900Z,5.27
2018-10-16T13:35:39.368Z,4.73
2018-10-16T13:38:07.979Z,5.07
2018-10-16T13:40:36.852Z,4.90
2018-10-16T13:43:06.295Z,5.10
2018-10-16T13:45:34.963Z,5.23
2018-10-16T13:48:03.438Z,5.03
2018-10-16T13:50:31.849Z,5.27
2018-10-16T13:53:00.387Z,5.57
2018-10-16T13:55:28.944Z,5.07
2018-10-16T13:57:57.491Z,5.43
2018-10-16T14:00:25.988Z,5.57
2018-10-16T14:02:54.471Z,5.23
2018-10-16T14:05:23.378Z,5.17
2018-10-16T14:07:51.886Z,5.43
2018-10-16T14:10:20.342Z,6.20
2018-10-16T14:12:49.263Z,4.90
2018-10-16T14:15:18.047Z,6.10
2018-10-16T14:17:46.549Z,5.23
2018-10-16T14:20:15.191Z,5.27
2018-10-16T14:22:43.931Z,5.47
2018-10-16T14:25:13.808Z,5.60
2018-10-16T14:27:42.644Z,5.73
2018-10-16T14:30:12.740Z,5.00
2018-10-16T14:32:40.586Z,5.13
2018-10-16T14:35:09.917Z,4.87
2018-10-16T14:37:39.137Z,5.57
2018-10-16T14:40:09.814Z,5.20
2018-10-16T14:42:38.331Z,5.40
2018-10-16T14:45:08.797Z,5.23
2018-10-16T14:47:37.632Z,5.27
2018-10-16T14:50:07.064Z,4.83
2018-10-16T14:52:35.773Z,5.53
2018-10-16T14:55:04.786Z,4.97
2018-10-16T14:57:33.347Z,5.40
2018-10-16T15:00:02.110Z,6.10
2018-10-16T15:02:30.576Z,6.20
2018-10-16T15:04:59.082Z,5.97
2018-10-16T15:07:27.635Z,6.00
2018-10-16T15:09:56.260Z,5.30
2018-10-16T15:12:30.572Z,4.90
2018-10-16T15:14:59.218Z,5.30
2018-10-16T15:17:28.360Z,5.27
2018-10-16T15:19:57.036Z,5.07
2018-10-16T15:22:26.776Z,5.70
2018-10-16T15:24:55.224Z,5.20
2018-10-16T15:27:23.798Z,5.70
2018-10-16T15:29:53.016Z,5.53
2018-10-16T15:32:21.488Z,4.97
2018-10-16T15:34:49.968Z,5.57
2018-10-16T15:37:18.600Z,5.30
2018-10-16T15:39:47.093Z,4.80
2018-10-16T15:42:15.569Z,5.00
2018-10-16T15:44:44.500Z,5.37
2018-10-16T15:47:12.895Z,4.90
2018-10-16T15:49:41.571Z,5.23
2018-10-16T15:52:10.993Z,5.23
2018-10-16T15:54:39.484Z,5.30
2018-10-16T15:57:08.902Z,5.20
2018-10-16T15:59:37.586Z,4.70
2018-10-16T16:02:06.320Z,5.47
2018-10-16T16:04:34.962Z,5.33
2018-10-16T16:07:03.468Z,5.57
2018-10-16T16:09:31.962Z,5.17
2018-10-16T16:12:00.624Z,5.50
2018-10-16T16:14:29.398Z,5.47
2018-10-16T16:16:58.535Z,6.07
2018-10-16T16:19:27.577Z,5.47
2018-10-16T16:21:56.331Z,5.83
2018-10-16T16:24:25.004Z,5.40
2018-10-16T16:26:53.568Z,6.13
2018-10-16T16:29:22.061Z,5.33
2018-10-16T16:31:51.711Z,5.63
2018-10-16T16:34:20.328Z,5.43
2018-10-16T16:36:48.877Z,5.70
2018-10-16T16:39:17.565Z,6.10
2018-10-16T16:41:46.069Z,5.97
2018-10-16T16:44:14.855Z,5.80
2018-10-16T16:46:43.403Z,5.50
2018-10-16T16:49:12.539Z,6.20
2018-10-16T16:51:41.109Z,5.93
2018-10-16T16:54:10.196Z,5.73
2018-10-16T16:56:38.723Z,6.40
2018-10-16T16:59:07.487Z,6.60
2018-10-16T17:01:35.979Z,6.20
2018-10-16T17:04:05.853Z,5.90
2018-10-16T17:06:34.262Z,5.80
2018-10-16T17:09:03.040Z,6.70
2018-10-16T17:11:31.557Z,6.67
2018-10-16T17:14:00.325Z,6.90
2018-10-16T17:16:29.182Z,6.97
2018-10-16T17:18:57.790Z,6.97
2018-10-16T17:21:26.841Z,7.23
2018-10-16T17:23:55.421Z,7.00
2018-10-16T17:26:24.201Z,7.10
2018-10-16T17:28:52.714Z,7.87
2018-10-16T17:31:21.265Z,7.83
2018-10-16T17:33:50.287Z,7.70
2018-10-16T17:36:18.810Z,8.47
2018-10-16T17:38:47.395Z,8.07
2018-10-16T17:41:16.616Z,8.37
2018-10-16T17:43:45.221Z,8.17
2018-10-16T17:46:13.956Z,8.03
2018-10-16T17:48:42.679Z,8.13
2018-10-16T17:51:11.400Z,8.23
2018-10-16T17:53:39.899Z,8.50
2018-10-16T17:56:10.072Z,8.17
2018-10-16T17:58:38.509Z,8.10
2018-10-16T18:01:07.173Z,8.27
2018-10-16T18:03:35.662Z,9.53
2018-10-16T18:06:04.106Z,10.17
2018-10-16T18:08:33.240Z,11.33
2018-10-16T18:11:01.722Z,10.03
2018-10-16T18:13:30.119Z,9.73
2018-10-16T18:15:58.602Z,29.67
2018-10-16T18:18:27.069Z,18.90
2018-10-16T18:20:55.575Z,12.97
2018-10-16T18:23:24.025Z,10.60
2018-10-16T18:25:52.436Z,10.13
2018-10-16T18:28:20.856Z,9.77
2018-10-16T18:30:49.344Z,10.17
2018-10-16T18:33:18.383Z,17.30
2018-10-16T18:35:46.855Z,19.60
2018-10-16T18:38:15.278Z,16.40
2018-10-16T18:40:43.725Z,14.77
2018-10-16T18:43:12.220Z,13.17
2018-10-16T18:45:40.663Z,12.90
2018-10-16T18:48:09.123Z,12.63
2018-10-16T18:50:37.658Z,11.43
2018-10-16T18:53:06.748Z,11.20
2018-10-16T18:55:35.536Z,14.63
2018-10-16T18:58:03.984Z,13.37
2018-10-16T19:00:32.514Z,12.97
2018-10-16T19:03:01.057Z,10.67
2018-10-16T19:05:30.229Z,10.60
2018-10-16T19:07:59.023Z,9.40
2018-10-16T19:10:27.773Z,10.97
2018-10-16T19:12:56.428Z,11.67
2018-10-16T19:15:25.127Z,11.47
2018-10-16T19:17:53.905Z,12.00
2018-10-16T19:20:22.759Z,10.47
2018-10-16T19:22:51.236Z,10.83
2018-10-16T19:25:20.733Z,12.20
2018-10-16T19:27:49.412Z,13.00
2018-10-16T19:30:17.951Z,12.33
2018-10-16T19:32:46.539Z,12.47
2018-10-16T19:35:16.024Z,12.20
2018-10-16T19:37:44.776Z,10.90
2018-10-16T19:40:13.315Z,10.23
2018-10-16T19:42:42.271Z,9.83
2018-10-16T19:45:11.367Z,9.73
2018-10-16T19:47:40.294Z,9.47
2018-10-16T19:50:09.392Z,10.67
2018-10-16T19:52:38.438Z,10.20
2018-10-16T19:55:07.147Z,9.17
2018-10-16T19:57:35.840Z,10.10
2018-10-16T20:00:04.484Z,9.93
2018-10-16T20:02:32.892Z,10.07
2018-10-16T20:05:01.356Z,10.47
2018-10-16T20:07:30.324Z,9.97
2018-10-16T20:09:58.799Z,10.57
2018-10-16T20:12:27.282Z,10.73
2018-10-16T20:14:56.287Z,11.03
2018-10-16T20:17:24.761Z,11.17
2018-10-16T20:19:53.222Z,10.57
2018-10-16T20:22:22.262Z,10.20
2018-10-16T20:24:51.518Z,12.07
2018-10-16T20:27:19.819Z,10.47
2018-10-16T20:29:49.385Z,11.30
2018-10-16T20:32:17.807Z,11.17
2018-10-16T20:34:46.236Z,10.03
2018-10-16T20:37:14.721Z,10.97
2018-10-16T20:39:43.822Z,11.37
2018-10-16T20:42:12.364Z,11.00
2018-10-16T20:44:40.847Z,11.00
2018-10-16T20:47:09.268Z,11.23
2018-10-16T20:49:37.733Z,11.27
2018-10-16T20:52:06.199Z,11.83
2018-10-16T20:54:34.705Z,10.57
2018-10-16T20:57:03.150Z,10.60
2018-10-16T20:59:31.653Z,10.50
2018-10-16T21:02:00.180Z,11.10
2018-10-16T21:04:29.511Z,10.87
2018-10-16T21:06:57.987Z,11.07
2018-10-16T21:09:26.468Z,10.50
2018-10-16T21:11:54.925Z,11.00
2018-10-16T21:14:23.398Z,10.60
2018-10-16T21:16:52.364Z,11.73
2018-10-16T21:19:20.909Z,10.80
2018-10-16T21:21:49.495Z,10.80
2018-10-16T21:24:17.927Z,10.97
2018-10-16T21:26:56.380Z,11.20
2018-10-16T21:29:25.322Z,10.17
2018-10-16T21:31:54.522Z,11.20
2018-10-16T21:34:22.903Z,11.87
2018-10-16T21:36:51.295Z,10.83
2018-10-16T21:39:20.348Z,11.33
2018-10-16T21:41:48.878Z,12.10
2018-10-16T21:44:17.292Z,11.77
2018-10-16T21:46:45.687Z,11.27
2018-10-16T21:49:14.205Z,11.17
2018-10-16T21:51:42.779Z,11.27
2018-10-16T21:54:11.210Z,12.10
2018-10-16T21:56:40.493Z,11.40
2018-10-16T21:59:09.085Z,11.00
2018-10-16T22:01:42.776Z,11.30
2018-10-16T22:04:11.367Z,10.63
2018-10-16T22:06:39.809Z,11.10
2018-10-16T22:09:10.765Z,11.37
2018-10-16T22:11:39.168Z,11.60
2018-10-16T22:14:08.127Z,12.80
2018-10-16T22:16:36.552Z,12.50
2018-10-16T22:19:05.796Z,12.37
2018-10-16T22:21:34.212Z,11.90
2018-10-16T22:24:03.275Z,11.83
2018-10-16T22:26:31.988Z,11.77
2018-10-16T22:29:01.208Z,11.67
2018-10-16T22:31:29.743Z,11.87
2018-10-16T22:33:59.031Z,12.60
2018-10-16T22:36:27.655Z,12.00
2018-10-16T22:38:56.982Z,11.90
2018-10-16T22:41:25.750Z,13.03
2018-10-16T22:43:54.534Z,11.30
2018-10-16T22:46:23.347Z,12.00
2018-10-16T22:48:51.861Z,13.23
2018-10-16T22:51:21.100Z,12.37
2018-10-16T22:53:49.781Z,11.57
2018-10-16T22:56:19.454Z,11.37
2018-10-16T22:58:48.041Z,12.10
2018-10-16T23:01:17.866Z,12.27
2018-10-16T23:03:46.860Z,11.47
2018-10-16T23:06:15.590Z,11.60
2018-10-16T23:08:44.175Z,11.87
2018-10-16T23:11:13.460Z,11.70
2018-10-16T23:13:42.066Z,12.57
2018-10-16T23:16:11.792Z,12.10
2018-10-16T23:18:40.262Z,12.73
2018-10-16T23:21:09.495Z,12.37
2018-10-16T23:23:37.911Z,12.80
2018-10-16T23:26:07.015Z,11.97
2018-10-16T23:28:35.469Z,11.93
2018-10-16T23:31:03.931Z,11.47
2018-10-16T23:33:32.576Z,12.60
2018-10-16T23:36:01.122Z,11.77
2018-10-16T23:38:30.035Z,10.80
2018-10-16T23:40:58.542Z,11.43
2018-10-16T23:43:27.253Z,12.03
2018-10-16T23:45:55.815Z,12.27
2018-10-16T23:48:24.856Z,12.60
2018-10-16T23:50:53.319Z,12.40
2018-10-16T23:53:21.805Z,12.50
2018-10-16T23:55:50.939Z,12.40
2018-10-16T23:58:19.323Z,13.20
